createdAt,value
2023-05-09T00:00:50.686Z,2.52
2023-05-09T00:01:50.714Z,2.53
2023-05-09T00:02:50.740Z,2.52
2023-05-09T00:03:50.806Z,2.53
2023-05-09T00:04:50.910Z,2.54
2023-05-09T00:05:50.836Z,2.48
2023-05-09T00:06:50.871Z,2.48
2023-05-09T00:07:50.899Z,2.45
2023-05-09T00:08:50.953Z,2.44
2023-05-09T00:09:50.995Z,2.47
2023-05-09T00:10:51.054Z,2.46
2023-05-09T00:11:51.083Z,2.45
2023-05-09T00:12:51.156Z,2.50
2023-05-09T00:13:52.081Z,2.45
2023-05-09T00:14:51.295Z,2.46
2023-05-09T00:15:51.239Z,2.44
2023-05-09T00:16:51.347Z,2.43
2023-05-09T00:17:51.348Z,2.44
2023-05-09T00:18:51.385Z,2.42
2023-05-09T00:19:51.391Z,2.43
2023-05-09T00:20:51.425Z,2.44
2023-05-09T00:21:51.527Z,2.42
2023-05-09T00:22:51.527Z,2.43
2023-05-09T00:23:51.574Z,2.38
2023-05-09T00:24:51.576Z,2.39
2023-05-09T00:25:51.645Z,2.38
2023-05-09T00:26:51.689Z,2.41
2023-05-09T00:27:51.712Z,2.38
2023-05-09T00:28:51.750Z,2.37
2023-05-09T00:29:51.792Z,2.37
2023-05-09T00:30:51.952Z,2.37
2023-05-09T00:31:51.889Z,2.37
2023-05-09T00:32:51.980Z,2.37
2023-05-09T00:33:51.962Z,2.36
2023-05-09T00:34:51.966Z,2.34
2023-05-09T00:35:51.993Z,2.34
2023-05-09T00:36:52.027Z,2.34
2023-05-09T00:37:52.157Z,2.32
2023-05-09T00:38:52.105Z,2.32
2023-05-09T00:39:52.128Z,2.29
2023-05-09T00:40:52.204Z,2.33
2023-05-09T00:41:52.252Z,2.35
2023-05-09T00:42:52.234Z,2.27
2023-05-09T00:43:52.347Z,2.28
2023-05-09T00:44:52.318Z,2.31
2023-05-09T00:45:54.243Z,2.28
2023-05-09T00:46:52.448Z,2.30
2023-05-09T00:47:52.593Z,2.30
2023-05-09T00:48:52.569Z,2.25
2023-05-09T00:49:52.547Z,2.28
2023-05-09T00:50:52.653Z,2.30
2023-05-09T00:51:52.650Z,2.26
2023-05-09T00:52:52.669Z,2.22
2023-05-09T00:53:52.733Z,2.24
2023-05-09T00:54:52.772Z,2.28
2023-05-09T00:55:52.836Z,2.25
2023-05-09T00:56:52.940Z,2.26
2023-05-09T00:57:52.917Z,2.26
2023-05-09T00:58:52.929Z,2.24
2023-05-09T00:59:53.005Z,2.23
2023-05-09T01:00:53.071Z,2.24
2023-05-09T01:01:53.361Z,2.22
2023-05-09T01:02:53.352Z,2.23
2023-05-09T01:03:53.287Z,2.22
2023-05-09T01:04:53.249Z,2.20
2023-05-09T01:05:53.326Z,2.20
2023-05-09T01:06:53.346Z,2.21
2023-05-09T01:07:53.375Z,2.18
2023-05-09T01:08:53.604Z,2.19
2023-05-09T01:09:53.545Z,2.22
2023-05-09T01:10:53.525Z,2.19
2023-05-09T01:11:53.582Z,2.16
2023-05-09T01:12:53.738Z,2.16
2023-05-09T01:13:53.671Z,2.19
2023-05-09T01:14:53.738Z,2.15
2023-05-09T01:15:53.802Z,2.14
2023-05-09T01:16:53.820Z,2.13
2023-05-09T01:17:53.975Z,2.18
2023-05-09T01:18:53.877Z,2.13
2023-05-09T01:19:53.906Z,2.12
2023-05-09T01:20:53.956Z,2.15
2023-05-09T01:21:54.131Z,2.12
2023-05-09T01:22:54.070Z,2.14
2023-05-09T01:23:54.114Z,2.14
2023-05-09T01:24:54.120Z,2.15
2023-05-09T01:25:54.185Z,2.10
2023-05-09T01:26:54.231Z,2.14
2023-05-09T01:27:54.251Z,2.11
2023-05-09T01:28:54.321Z,2.09
2023-05-09T01:29:54.362Z,2.12
2023-05-09T01:30:54.426Z,2.10
2023-05-09T01:31:54.466Z,2.11
2023-05-09T01:32:54.509Z,2.07
2023-05-09T01:33:54.635Z,2.10
2023-05-09T01:34:54.562Z,2.09
2023-05-09T01:35:54.632Z,2.08
2023-05-09T01:36:54.706Z,2.09
2023-05-09T01:37:54.752Z,2.08
2023-05-09T01:38:54.766Z,2.06
2023-05-09T01:39:54.822Z,2.05
2023-05-09T01:40:54.858Z,2.08
2023-05-09T01:41:54.968Z,2.06
2023-05-09T01:42:54.961Z,2.08
2023-05-09T01:43:55.075Z,2.08
2023-05-09T01:44:55.045Z,2.03
2023-05-09T01:45:55.099Z,2.05
2023-05-09T01:46:55.215Z,2.05
2023-05-09T01:47:55.232Z,2.04
2023-05-09T01:48:55.253Z,2.01
2023-05-09T01:49:55.416Z,2.03
2023-05-09T01:50:55.344Z,2.05
2023-05-09T01:51:55.388Z,2.00
2023-05-09T01:52:55.414Z,1.99
2023-05-09T01:53:55.460Z,2.01
2023-05-09T01:54:55.466Z,2.01
2023-05-09T01:55:55.522Z,2.01
2023-05-09T01:56:55.626Z,1.99
2023-05-09T01:57:55.611Z,2.02
2023-05-09T01:58:55.668Z,1.97
2023-05-09T01:59:55.718Z,1.98
2023-05-09T02:00:55.801Z,1.97
2023-05-09T02:01:55.816Z,1.97
2023-05-09T02:02:56.051Z,1.96
2023-05-09T02:03:55.861Z,1.93
2023-05-09T02:04:55.996Z,1.98
2023-05-09T02:05:56.036Z,1.96
2023-05-09T02:06:56.018Z,1.94
2023-05-09T02:07:56.029Z,1.95
2023-05-09T02:08:56.102Z,1.95
2023-05-09T02:09:56.126Z,1.94
2023-05-09T02:10:56.268Z,1.92
2023-05-09T02:11:56.226Z,1.93
2023-05-09T02:12:56.290Z,1.93
2023-05-09T02:13:56.284Z,1.91
2023-05-09T02:14:56.301Z,1.92
2023-05-09T02:15:56.398Z,1.93
2023-05-09T02:16:56.527Z,1.93
2023-05-09T02:17:56.500Z,1.93
2023-05-09T02:18:56.504Z,1.92
2023-05-09T02:19:56.552Z,1.95
2023-05-09T02:20:56.630Z,1.90
2023-05-09T02:21:56.740Z,1.89
2023-05-09T02:22:56.695Z,1.91
2023-05-09T02:23:56.711Z,1.90
2023-05-09T02:24:56.762Z,1.91
2023-05-09T02:25:56.832Z,1.88
2023-05-09T02:26:56.925Z,1.88
2023-05-09T02:27:56.938Z,1.90
2023-05-09T02:28:56.941Z,1.88
2023-05-09T02:29:56.979Z,1.89
2023-05-09T02:30:57.050Z,1.89
2023-05-09T02:31:57.163Z,1.89
2023-05-09T02:32:57.150Z,1.86
2023-05-09T02:33:57.185Z,1.86
2023-05-09T02:34:57.226Z,1.85
2023-05-09T02:35:57.295Z,1.84
2023-05-09T02:36:57.351Z,1.87
2023-05-09T02:37:57.404Z,1.86
2023-05-09T02:38:57.416Z,1.82
2023-05-09T02:39:57.451Z,1.86
2023-05-09T02:40:57.511Z,1.88
2023-05-09T02:41:57.555Z,1.84
2023-05-09T02:42:57.584Z,1.84
2023-05-09T02:43:57.675Z,1.87
2023-05-09T02:44:57.662Z,1.86
2023-05-09T02:45:57.756Z,1.83
2023-05-09T02:46:57.752Z,1.81
2023-05-09T02:47:57.818Z,1.84
2023-05-09T02:48:57.874Z,1.83
2023-05-09T02:49:57.900Z,1.82
2023-05-09T02:50:57.923Z,1.82
2023-05-09T02:51:57.993Z,1.81
2023-05-09T02:52:58.018Z,1.82
2023-05-09T02:53:58.165Z,1.81
2023-05-09T02:54:58.071Z,1.82
2023-05-09T02:55:58.103Z,1.82
2023-05-09T02:56:58.156Z,1.80
2023-05-09T02:58:11.972Z,1.76
2023-05-09T02:58:59.203Z,1.76
2023-05-09T02:59:58.190Z,1.77
2023-05-09T03:00:58.167Z,1.78
2023-05-09T03:01:58.175Z,1.79
2023-05-09T03:02:58.224Z,1.80
2023-05-09T03:03:58.189Z,1.79
2023-05-09T03:04:58.134Z,1.76
2023-05-09T03:05:58.120Z,1.77
2023-05-09T03:06:58.112Z,1.81
2023-05-09T03:07:58.139Z,1.79
2023-05-09T03:08:58.217Z,1.79
2023-05-09T03:09:58.170Z,1.76
2023-05-09T03:10:58.133Z,1.77
2023-05-09T03:11:58.201Z,1.77
2023-05-09T03:12:58.238Z,1.73
2023-05-09T03:13:58.285Z,1.75
2023-05-09T03:14:58.332Z,1.74
2023-05-09T03:15:58.412Z,1.75
2023-05-09T03:16:58.447Z,1.73
2023-05-09T03:17:58.522Z,1.74
2023-05-09T03:18:58.547Z,1.75
2023-05-09T03:19:58.572Z,1.73
2023-05-09T03:20:58.651Z,1.75
2023-05-09T03:21:58.683Z,1.74
2023-05-09T03:22:58.775Z,1.78
2023-05-09T03:23:58.809Z,1.74
2023-05-09T03:24:58.805Z,1.74
2023-05-09T03:25:58.962Z,1.71
2023-05-09T03:26:58.936Z,1.71
2023-05-09T03:27:59.194Z,1.77
2023-05-09T03:28:59.031Z,1.72
2023-05-09T03:29:59.048Z,1.73
2023-05-09T03:30:59.141Z,1.74
2023-05-09T03:31:59.134Z,1.73
2023-05-09T03:32:59.254Z,1.73
2023-05-09T03:33:59.244Z,1.72
2023-05-09T03:34:59.297Z,1.72
2023-05-09T03:35:59.334Z,1.71
2023-05-09T03:36:59.346Z,1.74
2023-05-09T03:37:59.421Z,1.70
2023-05-09T03:38:59.479Z,1.71
2023-05-09T03:39:59.516Z,1.68
2023-05-09T03:40:59.556Z,1.69
2023-05-09T03:41:59.683Z,1.70
2023-05-09T03:42:59.663Z,1.69
2023-05-09T03:43:59.716Z,1.67
2023-05-09T03:44:59.757Z,1.67
2023-05-09T03:45:59.820Z,1.69
2023-05-09T03:46:59.952Z,1.66
2023-05-09T03:47:59.902Z,1.65
2023-05-09T03:48:59.910Z,1.66
2023-05-09T03:49:59.935Z,1.65
2023-05-09T03:51:00.027Z,1.69
2023-05-09T03:52:00.063Z,1.66
2023-05-09T03:53:00.121Z,1.65
2023-05-09T03:54:00.206Z,1.63
2023-05-09T03:55:00.189Z,1.65
2023-05-09T03:56:00.269Z,1.67
2023-05-09T03:57:00.273Z,1.66
2023-05-09T03:58:00.423Z,1.62
2023-05-09T03:59:00.358Z,1.63
2023-05-09T04:00:00.441Z,1.61
2023-05-09T04:01:00.466Z,1.65
2023-05-09T04:02:00.513Z,1.64
2023-05-09T04:03:00.624Z,1.59
2023-05-09T04:04:00.619Z,1.62
2023-05-09T04:05:00.583Z,1.60
2023-05-09T04:06:02.202Z,1.61
2023-05-09T04:07:00.659Z,1.63
2023-05-09T04:08:00.680Z,1.63
2023-05-09T04:09:00.715Z,1.60
2023-05-09T04:10:00.783Z,1.59
2023-05-09T04:11:00.793Z,1.60
2023-05-09T04:12:00.854Z,1.61
2023-05-09T04:13:00.913Z,1.63
2023-05-09T04:14:01.005Z,1.60
2023-05-09T04:15:00.967Z,1.60
2023-05-09T04:16:01.047Z,1.59
2023-05-09T04:17:01.207Z,1.62
2023-05-09T04:18:01.132Z,1.60
2023-05-09T04:19:01.152Z,1.60
2023-05-09T04:20:01.216Z,1.61
2023-05-09T04:21:01.215Z,1.56
2023-05-09T04:22:01.255Z,1.58
2023-05-09T04:23:01.320Z,1.57
2023-05-09T04:24:01.360Z,1.58
2023-05-09T04:25:01.402Z,1.57
2023-05-09T04:26:01.475Z,1.59
2023-05-09T04:27:01.502Z,1.57
2023-05-09T04:28:01.565Z,1.58
2023-05-09T04:29:01.643Z,1.59
2023-05-09T04:30:01.760Z,1.58
2023-05-09T04:31:01.803Z,1.53
2023-05-09T04:32:01.943Z,1.55
2023-05-09T04:33:01.856Z,1.56
2023-05-09T04:34:01.951Z,1.53
2023-05-09T04:35:01.990Z,1.57
2023-05-09T04:36:02.033Z,1.58
2023-05-09T04:37:02.076Z,1.56
2023-05-09T04:38:02.120Z,1.57
2023-05-09T04:39:02.204Z,1.55
2023-05-09T04:40:02.206Z,1.55
2023-05-09T04:41:02.388Z,1.56
2023-05-09T04:42:02.346Z,1.54
2023-05-09T04:43:02.414Z,1.53
2023-05-09T04:44:02.462Z,1.52
2023-05-09T04:45:02.471Z,1.51
2023-05-09T04:46:02.680Z,1.53
2023-05-09T04:47:02.607Z,1.52
2023-05-09T04:48:02.676Z,1.54
2023-05-09T04:49:02.688Z,1.52
2023-05-09T04:50:02.706Z,1.54
2023-05-09T04:51:02.718Z,1.52
2023-05-09T04:52:02.798Z,1.51
2023-05-09T04:53:02.806Z,1.52
2023-05-09T04:54:02.894Z,1.53
2023-05-09T04:55:02.914Z,1.50
2023-05-09T04:56:02.958Z,1.53
2023-05-09T04:57:13.703Z,1.51
2023-05-09T04:58:03.963Z,1.52
2023-05-09T04:59:03.230Z,1.52
2023-05-09T05:00:02.953Z,1.52
2023-05-09T05:01:02.972Z,1.52
2023-05-09T05:02:03.245Z,1.52
2023-05-09T05:03:02.972Z,1.52
2023-05-09T05:04:02.920Z,1.50
2023-05-09T05:05:17.547Z,1.52
2023-05-09T05:06:03.920Z,1.52
2023-05-09T05:07:02.897Z,1.52
2023-05-09T05:08:02.876Z,1.51
2023-05-09T05:09:02.906Z,1.50
2023-05-09T05:10:02.877Z,1.49
2023-05-09T05:11:03.039Z,1.48
2023-05-09T05:12:04.932Z,1.47
2023-05-09T05:13:02.911Z,1.49
2023-05-09T05:14:02.852Z,1.48
2023-05-09T05:15:02.881Z,1.44
2023-05-09T05:16:02.883Z,1.43
2023-05-09T05:17:02.862Z,1.44
2023-05-09T05:18:03.005Z,1.44
2023-05-09T05:19:02.843Z,1.43
2023-05-09T05:20:02.812Z,1.36
2023-05-09T05:21:02.828Z,1.39
2023-05-09T05:22:02.784Z,1.40
2023-05-09T05:23:02.901Z,1.39
2023-05-09T05:24:02.827Z,1.37
2023-05-09T05:25:02.780Z,1.36
2023-05-09T05:26:03.717Z,1.37
2023-05-09T05:27:03.753Z,1.38
2023-05-09T05:28:02.758Z,1.37
2023-05-09T05:29:02.766Z,1.37
2023-05-09T05:30:02.757Z,1.37
2023-05-09T05:31:02.754Z,1.40
2023-05-09T05:32:02.729Z,1.49
2023-05-09T05:33:02.851Z,1.51
2023-05-09T05:34:02.866Z,2.11
2023-05-09T05:35:02.763Z,2.33
2023-05-09T05:36:02.855Z,2.15
2023-05-09T05:37:02.680Z,2.19
2023-05-09T05:38:02.672Z,2.25
2023-05-09T05:39:02.743Z,2.40
2023-05-09T05:40:02.672Z,2.32
2023-05-09T05:41:02.738Z,2.36
2023-05-09T05:42:02.659Z,2.56
2023-05-09T05:43:02.732Z,2.28
2023-05-09T05:44:02.647Z,2.32
2023-05-09T05:45:02.736Z,2.37
2023-05-09T05:46:02.671Z,2.36
2023-05-09T05:47:02.656Z,2.33
2023-05-09T05:48:02.789Z,2.45
2023-05-09T05:49:02.613Z,2.38
2023-05-09T05:50:02.772Z,2.47
2023-05-09T05:51:02.639Z,2.33
2023-05-09T05:52:02.709Z,2.40
2023-05-09T05:53:02.789Z,2.36
2023-05-09T05:54:02.807Z,2.35
2023-05-09T05:55:02.857Z,2.37
2023-05-09T05:56:02.903Z,2.45
2023-05-09T05:57:02.946Z,2.52
2023-05-09T05:58:02.982Z,2.42
2023-05-09T05:59:03.080Z,2.33
2023-05-09T06:00:03.145Z,2.36
2023-05-09T06:01:03.157Z,2.54
2023-05-09T06:02:03.297Z,2.51
2023-05-09T06:03:03.841Z,2.50
2023-05-09T06:04:03.388Z,2.46
2023-05-09T06:05:03.336Z,2.41
2023-05-09T06:06:03.390Z,2.40
2023-05-09T06:07:03.450Z,2.47
2023-05-09T06:08:03.528Z,2.53
2023-05-09T06:09:03.553Z,2.63
2023-05-09T06:10:03.611Z,2.65
2023-05-09T06:11:04.231Z,2.65
2023-05-09T06:12:03.715Z,2.62
2023-05-09T06:13:04.018Z,2.68
2023-05-09T06:14:03.809Z,2.67
2023-05-09T06:15:03.893Z,2.63
2023-05-09T06:16:14.919Z,2.70
2023-05-09T06:17:05.013Z,2.71
2023-05-09T06:18:03.979Z,2.72
2023-05-09T06:19:03.898Z,2.72
2023-05-09T06:20:03.877Z,2.75
2023-05-09T06:21:03.873Z,2.77
2023-05-09T06:22:03.960Z,2.80
2023-05-09T06:23:03.933Z,2.86
2023-05-09T06:24:10.268Z,3.30
2023-05-09T06:25:04.950Z,3.31
2023-05-09T06:26:03.867Z,3.18
2023-05-09T06:28:03.870Z,3.10
2023-05-09T06:29:03.850Z,3.02
2023-05-09T06:30:14.175Z,3.09
2023-05-09T06:31:04.826Z,3.10
2023-05-09T06:32:03.800Z,3.11
2023-05-09T06:33:04.291Z,3.13
2023-05-09T06:34:03.803Z,3.10
2023-05-09T06:35:03.804Z,3.08
2023-05-09T06:36:03.793Z,3.11
2023-05-09T06:37:03.829Z,3.25
2023-05-09T06:38:04.844Z,2.98
2023-05-09T06:39:04.254Z,2.84
2023-05-09T06:40:03.789Z,2.79
2023-05-09T06:41:03.874Z,2.77
2023-05-09T06:42:03.830Z,2.87
2023-05-09T06:43:03.894Z,2.82
2023-05-09T06:44:03.958Z,2.84
2023-05-09T06:45:03.988Z,2.88
2023-05-09T06:46:04.066Z,2.96
2023-05-09T06:47:04.073Z,3.07
2023-05-09T06:48:04.113Z,3.24
2023-05-09T06:49:04.213Z,3.65
2023-05-09T06:50:04.226Z,3.52
2023-05-09T06:51:04.406Z,3.42
2023-05-09T06:52:04.302Z,3.73
2023-05-09T06:53:04.386Z,4.00
2023-05-09T06:54:04.534Z,4.31
2023-05-09T06:55:04.479Z,4.51
2023-05-09T06:56:04.526Z,4.93
2023-05-09T06:57:04.577Z,5.30
2023-05-09T06:58:04.710Z,5.66
2023-05-09T06:59:04.703Z,5.93
2023-05-09T07:00:04.821Z,6.46
2023-05-09T07:01:04.790Z,6.88
2023-05-09T07:02:04.882Z,7.16
2023-05-09T07:03:05.049Z,7.50
2023-05-09T07:04:05.762Z,7.80
2023-05-09T07:05:05.178Z,8.05
2023-05-09T07:06:05.063Z,7.98
2023-05-09T07:07:05.104Z,8.19
2023-05-09T07:08:05.165Z,8.53
2023-05-09T07:09:05.364Z,8.68
2023-05-09T07:10:11.483Z,8.64
2023-05-09T07:11:06.289Z,8.66
2023-05-09T07:12:05.280Z,8.70
2023-05-09T07:13:05.304Z,8.73
2023-05-09T07:14:05.274Z,8.77
2023-05-09T07:15:05.253Z,9.00
2023-05-09T07:16:05.278Z,8.79
2023-05-09T07:17:21.346Z,8.82
2023-05-09T07:18:06.260Z,8.84
2023-05-09T07:19:05.221Z,8.86
2023-05-09T07:20:05.238Z,8.86
2023-05-09T07:21:05.161Z,8.59
2023-05-09T07:22:05.191Z,8.69
2023-05-09T07:23:05.198Z,8.81
2023-05-09T07:24:05.184Z,8.58
2023-05-09T07:25:05.236Z,8.41
2023-05-09T07:26:05.245Z,8.23
2023-05-09T07:27:05.162Z,8.00
2023-05-09T07:28:05.221Z,7.91
2023-05-09T07:29:05.239Z,7.67
2023-05-09T07:30:05.261Z,7.40
2023-05-09T07:31:05.297Z,7.25
2023-05-09T07:32:05.452Z,6.90
2023-05-09T07:33:05.448Z,6.55
2023-05-09T07:34:05.779Z,6.37
2023-05-09T07:35:05.527Z,8.11
2023-05-09T07:36:05.503Z,8.23
2023-05-09T07:37:05.619Z,7.80
2023-05-09T07:38:05.601Z,7.48
2023-05-09T07:39:06.015Z,6.45
2023-05-09T07:40:05.656Z,5.45
2023-05-09T07:41:05.631Z,5.54
2023-05-09T07:42:06.343Z,5.51
2023-05-09T07:43:05.727Z,5.37
2023-05-09T07:44:05.777Z,5.39
2023-05-09T07:45:05.773Z,5.36
2023-05-09T07:46:05.939Z,5.68
2023-05-09T07:47:05.897Z,6.16
2023-05-09T07:48:05.936Z,6.52
2023-05-09T07:49:05.975Z,6.65
2023-05-09T07:50:06.018Z,6.89
2023-05-09T07:51:06.097Z,7.06
2023-05-09T07:52:06.177Z,7.28
2023-05-09T07:53:06.323Z,7.36
2023-05-09T07:54:06.347Z,7.61
2023-05-09T07:55:06.215Z,7.94
2023-05-09T07:56:06.265Z,7.94
2023-05-09T07:57:06.342Z,8.26
2023-05-09T07:58:06.444Z,7.93
2023-05-09T07:59:06.495Z,7.90
2023-05-09T08:00:06.427Z,7.81
2023-05-09T08:01:06.502Z,7.55
2023-05-09T08:02:06.583Z,7.58
2023-05-09T08:03:06.605Z,7.35
2023-05-09T08:04:06.714Z,7.44
2023-05-09T08:05:06.646Z,7.42
2023-05-09T08:06:06.672Z,7.59
2023-05-09T08:07:06.683Z,7.27
2023-05-09T08:08:06.796Z,7.06
2023-05-09T08:09:06.845Z,7.13
2023-05-09T08:10:06.801Z,6.92
2023-05-09T08:11:06.934Z,7.05
2023-05-09T08:12:06.905Z,7.12
2023-05-09T08:13:06.965Z,7.13
2023-05-09T08:14:07.105Z,7.20
2023-05-09T08:15:07.129Z,7.63
2023-05-09T08:16:07.108Z,7.74
2023-05-09T08:17:07.113Z,8.12
2023-05-09T08:18:07.280Z,8.24
2023-05-09T08:19:07.174Z,8.31
2023-05-09T08:20:07.167Z,8.78
2023-05-09T08:21:07.224Z,8.86
2023-05-09T08:22:07.259Z,8.21
2023-05-09T08:23:07.286Z,7.88
2023-05-09T08:24:07.824Z,7.67
2023-05-09T08:25:07.373Z,7.82
2023-05-09T08:26:07.433Z,7.36
2023-05-09T08:27:07.504Z,7.30
2023-05-09T08:28:07.469Z,7.27
2023-05-09T08:29:07.806Z,7.13
2023-05-09T08:30:07.595Z,7.27
2023-05-09T08:31:07.575Z,7.06
2023-05-09T08:32:10.327Z,7.07
2023-05-09T08:33:07.697Z,6.93
2023-05-09T08:34:07.580Z,6.88
2023-05-09T08:35:07.559Z,6.79
2023-05-09T08:36:07.583Z,6.49
2023-05-09T08:37:08.305Z,6.42
2023-05-09T08:38:07.574Z,6.00
2023-05-09T08:39:07.857Z,5.83
2023-05-09T08:40:07.834Z,5.83
2023-05-09T08:41:07.539Z,6.59
2023-05-09T08:42:07.649Z,6.80
2023-05-09T08:43:07.492Z,6.53
2023-05-09T08:44:07.638Z,6.05
2023-05-09T08:45:07.498Z,5.74
2023-05-09T08:46:07.604Z,5.52
2023-05-09T08:47:07.485Z,5.61
2023-05-09T08:48:07.544Z,5.35
2023-05-09T08:49:07.468Z,5.20
2023-05-09T08:50:08.329Z,5.18
2023-05-09T08:51:07.457Z,4.99
2023-05-09T08:52:07.461Z,4.95
2023-05-09T08:53:07.459Z,4.85
2023-05-09T08:54:09.314Z,4.69
2023-05-09T08:55:07.470Z,4.69
2023-05-09T08:56:07.456Z,4.55
2023-05-09T08:57:07.487Z,4.47
2023-05-09T08:58:07.398Z,4.63
2023-05-09T08:59:07.407Z,4.86
2023-05-09T09:00:07.412Z,4.70
2023-05-09T09:01:07.379Z,4.50
2023-05-09T09:02:07.610Z,4.09
2023-05-09T09:03:07.384Z,4.00
2023-05-09T09:04:07.421Z,3.88
2023-05-09T09:05:08.171Z,3.89
2023-05-09T09:06:08.357Z,3.90
2023-05-09T09:07:07.324Z,3.78
2023-05-09T09:08:07.330Z,3.66
2023-05-09T09:09:07.328Z,3.82
2023-05-09T09:10:07.329Z,3.56
2023-05-09T09:11:07.302Z,3.55
2023-05-09T09:12:07.343Z,3.38
2023-05-09T09:13:07.494Z,3.17
2023-05-09T09:14:07.334Z,2.85
2023-05-09T09:15:07.272Z,2.81
2023-05-09T09:16:07.316Z,2.70
2023-05-09T09:17:07.279Z,3.04
2023-05-09T09:18:07.337Z,2.78
2023-05-09T09:19:07.267Z,2.61
2023-05-09T09:20:07.310Z,2.64
2023-05-09T09:21:07.384Z,2.59
2023-05-09T09:22:07.336Z,2.71
2023-05-09T09:23:07.348Z,2.65
2023-05-09T09:24:07.387Z,2.58
2023-05-09T09:25:07.408Z,2.67
2023-05-09T09:26:07.496Z,2.48
2023-05-09T09:27:07.518Z,2.33
2023-05-09T09:28:07.569Z,2.40
2023-05-09T09:29:07.737Z,2.17
2023-05-09T09:30:07.633Z,2.02
2023-05-09T09:31:07.669Z,2.10
2023-05-09T09:32:07.783Z,1.94
2023-05-09T09:33:07.842Z,1.88
2023-05-09T09:34:08.413Z,1.92
2023-05-09T09:35:07.810Z,2.04
2023-05-09T09:36:07.841Z,2.14
2023-05-09T09:37:07.900Z,2.30
2023-05-09T09:38:07.867Z,2.08
2023-05-09T09:39:07.936Z,1.96
2023-05-09T09:40:07.916Z,2.12
2023-05-09T09:41:07.930Z,2.12
2023-05-09T09:42:07.928Z,1.97
2023-05-09T09:43:07.955Z,1.51
2023-05-09T09:44:08.360Z,1.32
2023-05-09T09:45:08.124Z,0.92
2023-05-09T09:46:08.051Z,0.82
2023-05-09T09:47:08.094Z,0.86
2023-05-09T09:48:08.137Z,0.94
2023-05-09T09:49:08.063Z,1.04
2023-05-09T09:50:08.165Z,1.14
2023-05-09T09:51:08.071Z,1.28
2023-05-09T09:52:08.842Z,1.11
2023-05-09T09:53:08.183Z,0.84
2023-05-09T09:54:08.216Z,0.84
2023-05-09T09:55:08.178Z,0.73
2023-05-09T09:56:08.203Z,0.62
2023-05-09T09:57:08.199Z,0.68
2023-05-09T09:58:08.236Z,0.76
2023-05-09T09:59:08.298Z,0.81
2023-05-09T10:00:08.291Z,0.90
2023-05-09T10:01:08.554Z,1.15
2023-05-09T10:02:08.625Z,1.16
2023-05-09T10:03:08.387Z,1.13
2023-05-09T10:04:08.516Z,1.24
2023-05-09T10:05:08.362Z,1.19
2023-05-09T10:06:08.472Z,1.13
2023-05-09T10:07:08.476Z,1.16
2023-05-09T10:08:08.434Z,1.17
2023-05-09T10:09:08.433Z,1.21
2023-05-09T10:10:08.486Z,1.21
2023-05-09T10:11:08.573Z,1.01
2023-05-09T10:12:08.714Z,0.93
2023-05-09T10:13:08.507Z,0.70
2023-05-09T10:14:10.440Z,0.70
2023-05-09T10:15:08.585Z,0.74
2023-05-09T10:16:08.669Z,0.75
2023-05-09T10:17:08.651Z,0.76
2023-05-09T10:18:08.781Z,0.81
2023-05-09T10:19:09.412Z,0.88
2023-05-09T10:20:08.586Z,0.90
2023-05-09T10:21:08.564Z,0.77
2023-05-09T10:22:08.714Z,0.72
2023-05-09T10:23:08.588Z,0.83
2023-05-09T10:24:08.594Z,0.83
2023-05-09T10:25:08.641Z,0.96
2023-05-09T10:26:08.608Z,1.10
2023-05-09T10:27:08.605Z,1.25
2023-05-09T10:28:08.635Z,1.49
2023-05-09T10:29:08.686Z,1.61
2023-05-09T10:30:08.660Z,1.79
2023-05-09T10:31:08.953Z,1.75
2023-05-09T10:32:08.787Z,1.88
2023-05-09T10:33:08.789Z,2.02
2023-05-09T10:34:08.678Z,2.27
2023-05-09T10:35:08.679Z,2.12
2023-05-09T10:36:08.683Z,2.35
2023-05-09T10:37:08.748Z,2.56
2023-05-09T10:38:08.750Z,2.42
2023-05-09T10:39:08.685Z,2.41
2023-05-09T10:40:08.655Z,2.05
2023-05-09T10:41:08.647Z,1.97
2023-05-09T10:42:08.785Z,1.91
2023-05-09T10:43:08.664Z,1.81
2023-05-09T10:44:08.697Z,1.87
2023-05-09T10:45:08.689Z,1.69
2023-05-09T10:46:08.785Z,1.70
2023-05-09T10:47:08.797Z,1.66
2023-05-09T10:48:09.063Z,1.79
2023-05-09T10:49:08.872Z,1.62
2023-05-09T10:50:08.845Z,1.34
2023-05-09T10:51:08.824Z,1.38
2023-05-09T10:52:08.856Z,1.41
2023-05-09T10:53:08.957Z,1.30
2023-05-09T10:54:08.951Z,1.17
2023-05-09T10:55:08.924Z,1.23
2023-05-09T10:56:08.931Z,1.29
2023-05-09T10:57:08.919Z,1.22
2023-05-09T10:58:08.934Z,1.07
2023-05-09T10:59:08.958Z,1.14
2023-05-09T11:00:09.094Z,1.07
2023-05-09T11:01:09.024Z,0.98
2023-05-09T11:02:09.024Z,0.99
2023-05-09T11:03:09.083Z,0.87
2023-05-09T11:04:09.070Z,0.84
2023-05-09T11:05:09.108Z,0.70
2023-05-09T11:06:09.124Z,0.66
2023-05-09T11:07:09.158Z,0.64
2023-05-09T11:08:09.159Z,0.67
2023-05-09T11:09:09.214Z,0.66
2023-05-09T11:10:09.207Z,0.56
2023-05-09T11:11:09.191Z,0.60
2023-05-09T11:12:09.235Z,0.62
2023-05-09T11:13:09.236Z,0.62
2023-05-09T11:14:09.236Z,0.61
2023-05-09T11:15:09.246Z,0.68
2023-05-09T11:16:09.286Z,0.67
2023-05-09T11:17:09.263Z,0.72
2023-05-09T11:18:09.320Z,0.81
2023-05-09T11:19:09.215Z,0.83
2023-05-09T11:20:09.360Z,0.76
2023-05-09T11:21:09.412Z,0.90
2023-05-09T11:22:09.327Z,1.13
2023-05-09T11:23:09.396Z,1.35
2023-05-09T11:24:09.442Z,1.24
2023-05-09T11:25:09.582Z,1.18
2023-05-09T11:26:09.632Z,0.86
2023-05-09T11:27:09.544Z,0.65
2023-05-09T11:28:09.582Z,0.48
2023-05-09T11:29:09.571Z,0.45
2023-05-09T11:30:09.645Z,0.47
2023-05-09T11:31:09.669Z,0.48
2023-05-09T11:32:09.676Z,0.44
2023-05-09T11:33:09.686Z,0.42
2023-05-09T11:34:09.666Z,0.36
2023-05-09T11:35:09.741Z,0.51
2023-05-09T11:36:09.700Z,0.50
2023-05-09T11:37:09.745Z,0.52
2023-05-09T11:38:09.777Z,0.53
2023-05-09T11:39:09.771Z,0.50
2023-05-09T11:40:09.792Z,0.61
2023-05-09T11:41:09.794Z,0.57
2023-05-09T11:42:09.906Z,0.73
2023-05-09T11:43:09.822Z,0.71
2023-05-09T11:44:09.809Z,0.90
2023-05-09T11:45:09.832Z,1.08
2023-05-09T11:46:09.953Z,1.05
2023-05-09T11:47:09.837Z,1.05
2023-05-09T11:48:10.077Z,1.09
2023-05-09T11:49:12.020Z,1.36
2023-05-09T11:50:09.961Z,1.31
2023-05-09T11:51:09.927Z,1.38
2023-05-09T11:52:09.937Z,1.40
2023-05-09T11:53:09.927Z,1.54
2023-05-09T11:54:09.926Z,1.48
2023-05-09T11:55:12.226Z,1.50
2023-05-09T11:56:09.922Z,1.53
2023-05-09T11:57:09.916Z,1.45
2023-05-09T11:58:09.991Z,1.37
2023-05-09T11:59:09.993Z,1.13
2023-05-09T12:00:09.884Z,1.17
2023-05-09T12:01:11.768Z,0.89
2023-05-09T12:02:09.942Z,0.66
2023-05-09T12:03:09.963Z,0.50
2023-05-09T12:04:09.953Z,0.56
2023-05-09T12:05:09.900Z,0.36
2023-05-09T12:06:09.888Z,0.34
2023-05-09T12:07:09.845Z,0.34
2023-05-09T12:08:09.954Z,0.34
2023-05-09T12:09:09.832Z,0.35
2023-05-09T12:10:09.856Z,0.34
2023-05-09T12:11:10.377Z,0.34
2023-05-09T12:12:09.799Z,0.35
2023-05-09T12:13:09.862Z,0.34
2023-05-09T12:14:09.883Z,0.47
2023-05-09T12:15:09.904Z,0.54
2023-05-09T12:16:09.820Z,0.52
2023-05-09T12:17:09.792Z,0.51
2023-05-09T12:18:09.810Z,0.73
2023-05-09T12:19:09.848Z,0.79
2023-05-09T12:20:09.885Z,0.81
2023-05-09T12:21:09.767Z,0.78
2023-05-09T12:22:09.939Z,1.00
2023-05-09T12:23:09.840Z,0.85
2023-05-09T12:24:09.903Z,0.81
2023-05-09T12:25:09.990Z,0.66
2023-05-09T12:26:10.019Z,0.69
2023-05-09T12:27:10.079Z,0.71
2023-05-09T12:28:10.146Z,0.47
2023-05-09T12:29:10.213Z,0.51
2023-05-09T12:30:10.382Z,0.68
2023-05-09T12:31:10.365Z,0.68
2023-05-09T12:32:10.890Z,0.50
2023-05-09T12:33:10.394Z,0.47
2023-05-09T12:34:10.504Z,0.53
2023-05-09T12:35:10.761Z,0.52
2023-05-09T12:36:10.572Z,0.56
2023-05-09T12:37:10.515Z,0.70
2023-05-09T12:38:11.424Z,0.64
2023-05-09T12:39:10.611Z,0.44
2023-05-09T12:40:10.626Z,0.50
2023-05-09T12:41:18.632Z,0.66
2023-05-09T12:42:11.632Z,0.56
2023-05-09T12:43:10.625Z,0.56
2023-05-09T12:44:10.630Z,0.56
2023-05-09T12:45:11.011Z,0.59
2023-05-09T12:46:10.660Z,0.59
2023-05-09T12:47:10.762Z,0.62
2023-05-09T12:48:10.692Z,0.49
2023-05-09T12:49:10.597Z,0.48
2023-05-09T12:50:13.602Z,0.50
2023-05-09T12:51:10.673Z,0.46
2023-05-09T12:52:10.649Z,0.53
2023-05-09T12:53:10.564Z,0.48
2023-05-09T12:54:10.534Z,0.50
2023-05-09T12:55:10.634Z,0.61
2023-05-09T12:56:10.531Z,0.62
2023-05-09T12:57:10.534Z,0.56
2023-05-09T12:58:10.506Z,0.50
2023-05-09T12:59:10.505Z,0.61
2023-05-09T13:00:10.550Z,0.97
2023-05-09T13:01:10.530Z,1.06
2023-05-09T13:02:10.600Z,0.98
2023-05-09T13:03:10.523Z,0.81
2023-05-09T13:04:11.915Z,0.83
2023-05-09T13:05:10.970Z,0.82
2023-05-09T13:06:10.479Z,0.81
2023-05-09T13:07:10.463Z,0.98
2023-05-09T13:08:10.444Z,0.87
2023-05-09T13:09:10.434Z,0.85
2023-05-09T13:10:11.921Z,1.36
2023-05-09T13:12:10.415Z,1.02
2023-05-09T13:13:10.442Z,1.07
2023-05-09T13:14:10.465Z,1.15
2023-05-09T13:15:10.522Z,1.24
2023-05-09T13:16:11.635Z,1.68
2023-05-09T13:17:10.396Z,1.44
2023-05-09T13:18:10.535Z,1.47
2023-05-09T13:19:10.477Z,1.74
2023-05-09T13:20:10.536Z,1.62
2023-05-09T13:21:10.578Z,1.51